Time;durP1;ratioP1;P1;durP2;ratioP2;P2;SDS_P1;SDS_P2;PMS_P1;PMS_P2;Temp;Humidity;BMP_temperature;BMP_pressure;BME280_temperature;BME280_humidity;BME280_pressure;Samples;Min_cycle;Max_cycle;Signal;HPM_P1;HPM_P2
2023/01/18 00:00:33;;;;;;;3.10;1.63;;;;;;;;;;5028445;28;20041;-75
2023/01/18 00:02:59;;;;;;;3.55;1.50;;;;;;;;;;5020998;28;20052;-75
2023/01/18 00:05:25;;;;;;;2.38;1.40;;;;;;;;;;5001504;28;20129;-75
2023/01/18 00:07:52;;;;;;;1.70;1.38;;;;;;;;;;5014031;28;20069;-75
2023/01/18 00:10:18;;;;;;;3.85;1.70;;;;;;;;;;5045734;28;20489;-75
2023/01/18 00:12:45;;;;;;;2.63;1.33;;;;;;;;;;5017402;28;20039;-75
2023/01/18 00:15:11;;;;;;;1.90;1.30;;;;;;;;;;5016518;28;20369;-75
2023/01/18 00:17:46;;;;;;;2.53;1.20;;;;;;;;;;5024535;28;20088;-75
2023/01/18 00:20:15;;;;;;;1.15;1.05;;;;;;;;;;5038745;28;20049;-75
2023/01/18 00:22:41;;;;;;;1.67;1.10;;;;;;;;;;5040588;28;20049;-74
2023/01/18 00:25:09;;;;;;;4.00;1.42;;;;;;;;;;5033047;28;20042;-75
2023/01/18 00:27:36;;;;;;;3.30;1.50;;;;;;;;;;5022964;28;20050;-75
2023/01/18 00:30:03;;;;;;;4.45;1.63;;;;;;;;;;5020903;28;20048;-74
2023/01/18 00:32:29;;;;;;;2.20;1.52;;;;;;;;;;5023776;28;20057;-74
2023/01/18 00:34:55;;;;;;;3.97;1.60;;;;;;;;;;5034567;28;20072;-75
2023/01/18 00:37:23;;;;;;;4.05;1.77;;;;;;;;;;5036170;28;20049;-74
2023/01/18 00:39:49;;;;;;;4.45;1.95;;;;;;;;;;5032826;28;20037;-74
2023/01/18 00:45:00;;;;;;;4.28;1.80;;;;;;;;;;5031756;28;20393;-75
2023/01/18 00:47:26;;;;;;;3.47;1.70;;;;;;;;;;5016049;28;20133;-75
2023/01/18 00:49:52;;;;;;;2.10;1.83;;;;;;;;;;5024292;28;20410;-74
2023/01/18 00:52:18;;;;;;;4.95;1.75;;;;;;;;;;5019914;28;20041;-75
2023/01/18 00:54:44;;;;;;;4.47;2.15;;;;;;;;;;5035509;28;20492;-75
2023/01/18 00:57:10;;;;;;;4.53;2.08;;;;;;;;;;5036346;28;20380;-75
2023/01/18 00:59:36;;;;;;;3.22;2.05;;;;;;;;;;5014749;28;20046;-75
2023/01/18 01:02:02;;;;;;;3.35;1.90;;;;;;;;;;5024293;28;20483;-75
2023/01/18 01:07:13;;;;;;;4.50;2.40;;;;;;;;;;5051698;28;20085;-75
2023/01/18 01:09:39;;;;;;;4.70;2.20;;;;;;;;;;5034971;28;20053;-75
2023/01/18 01:26:06;;;;;;;2.55;2.00;;;;;;;;;;5051110;28;20452;-75
2023/01/18 01:28:33;;;;;;;4.05;2.50;;;;;;;;;;5033446;28;20049;-75
2023/01/18 01:31:00;;;;;;;3.13;2.28;;;;;;;;;;5019494;28;20053;-74
2023/01/18 01:33:27;;;;;;;3.58;2.08;;;;;;;;;;5015778;28;20485;-74
2023/01/18 01:35:57;;;;;;;4.45;2.40;;;;;;;;;;5015585;28;20136;-74
2023/01/18 01:38:23;;;;;;;3.38;2.20;;;;;;;;;;5022549;28;20563;-74
2023/01/18 01:41:03;;;;;;;5.55;2.65;;;;;;;;;;5035262;28;20484;-74
2023/01/18 01:43:55;;;;;;;4.75;2.40;;;;;;;;;;5031871;28;20053;-75
2023/01/18 01:46:31;;;;;;;4.55;2.45;;;;;;;;;;5010134;28;20061;-75
2023/01/18 01:49:13;;;;;;;3.55;2.65;;;;;;;;;;5032567;28;20052;-75
2023/01/18 01:51:44;;;;;;;6.20;2.40;;;;;;;;;;5015584;28;20046;-74
2023/01/18 01:54:13;;;;;;;4.18;2.25;;;;;;;;;;5015431;28;20041;-74
2023/01/18 01:56:40;;;;;;;4.10;2.20;;;;;;;;;;5015570;28;20504;-74
2023/01/18 01:59:07;;;;;;;3.33;2.50;;;;;;;;;;5024800;28;20116;-74
2023/01/18 02:01:34;;;;;;;6.03;2.55;;;;;;;;;;5035094;28;20071;-74
2023/01/18 02:04:01;;;;;;;4.75;2.50;;;;;;;;;;5034611;28;20495;-74
2023/01/18 02:06:32;;;;;;;3.72;2.25;;;;;;;;;;5023431;28;20073;-75
2023/01/18 02:09:02;;;;;;;4.10;2.33;;;;;;;;;;5024790;28;20056;-74
2023/01/18 02:11:28;;;;;;;6.82;2.33;;;;;;;;;;5035003;28;20092;-74
2023/01/18 02:13:55;;;;;;;3.53;2.42;;;;;;;;;;5024703;28;20095;-74
2023/01/18 02:16:57;;;;;;;5.05;2.33;;;;;;;;;;5015480;28;20041;-74
2023/01/18 02:19:35;;;;;;;3.60;2.50;;;;;;;;;;4990474;28;20051;-74
2023/01/18 02:22:07;;;;;;;3.45;2.33;;;;;;;;;;4963331;28;20050;-75
2023/01/18 02:24:42;;;;;;;3.90;2.60;;;;;;;;;;4992052;28;20054;-75
2023/01/18 02:27:18;;;;;;;5.05;2.60;;;;;;;;;;4991534;28;20531;-75
2023/01/18 02:30:02;;;;;;;5.72;2.40;;;;;;;;;;4992354;28;20046;-74
2023/01/18 02:32:31;;;;;;;8.30;2.47;;;;;;;;;;4975428;28;20073;-75
2023/01/18 02:35:08;;;;;;;3.80;2.40;;;;;;;;;;4992553;28;20397;-75
2023/01/18 02:37:56;;;;;;;5.07;2.40;;;;;;;;;;4992874;28;20073;-75
2023/01/18 02:40:25;;;;;;;3.63;2.20;;;;;;;;;;4992604;28;20054;-74
2023/01/18 02:48:39;;;;;;;4.93;2.45;;;;;;;;;;4986030;28;20532;-74
2023/01/18 02:51:05;;;;;;;5.07;3.13;;;;;;;;;;4992030;28;20046;-74
2023/01/18 02:53:33;;;;;;;4.13;2.22;;;;;;;;;;5008431;28;20054;-74
2023/01/18 02:56:22;;;;;;;4.55;2.05;;;;;;;;;;5021420;28;20051;-74
2023/01/18 02:58:54;;;;;;;6.38;2.28;;;;;;;;;;5017385;28;20056;-74
2023/01/18 03:01:25;;;;;;;4.97;2.40;;;;;;;;;;5017141;28;20506;-74
2023/01/18 03:03:52;;;;;;;5.10;2.60;;;;;;;;;;5012681;28;20060;-75
2023/01/18 03:06:20;;;;;;;5.88;2.40;;;;;;;;;;5025371;28;20073;-74
2023/01/18 03:08:48;;;;;;;7.05;2.35;;;;;;;;;;5029307;28;20451;-75
2023/01/18 03:11:18;;;;;;;3.50;2.30;;;;;;;;;;5024227;28;20095;-75
2023/01/18 03:13:44;;;;;;;5.13;2.45;;;;;;;;;;5032959;28;20121;-74
2023/01/18 03:16:14;;;;;;;3.65;2.58;;;;;;;;;;5013322;28;20126;-74
2023/01/18 03:18:59;;;;;;;3.35;2.25;;;;;;;;;;5013607;28;20128;-74
2023/01/18 03:21:42;;;;;;;3.55;2.47;;;;;;;;;;5030627;28;20049;-75
2023/01/18 03:24:10;;;;;;;8.23;2.42;;;;;;;;;;5030157;28;20038;-74
2023/01/18 03:26:39;;;;;;;2.80;2.20;;;;;;;;;;5031907;28;20048;-75
2023/01/18 03:34:50;;;;;;;3.63;2.50;;;;;;;;;;5021552;28;20053;-74
2023/01/18 03:37:42;;;;;;;4.82;2.80;;;;;;;;;;5032076;28;20127;-74
2023/01/18 03:40:11;;;;;;;4.97;2.67;;;;;;;;;;5029695;28;20054;-74
2023/01/18 03:42:57;;;;;;;5.78;2.70;;;;;;;;;;5028445;28;20469;-74
2023/01/18 03:45:23;;;;;;;4.55;2.85;;;;;;;;;;5002119;28;20050;-74
2023/01/18 03:47:50;;;;;;;5.30;2.85;;;;;;;;;;5018171;28;20069;-74
2023/01/18 03:50:16;;;;;;;6.72;3.10;;;;;;;;;;5025567;28;20051;-74
2023/01/18 03:52:45;;;;;;;4.78;2.60;;;;;;;;;;5033860;28;20088;-74
2023/01/18 03:55:31;;;;;;;4.82;3.22;;;;;;;;;;5037076;28;20049;-74
2023/01/18 03:58:04;;;;;;;4.32;2.80;;;;;;;;;;5034039;28;20046;-74
2023/01/18 04:00:30;;;;;;;6.20;2.90;;;;;;;;;;5036357;28;20076;-74
2023/01/18 04:02:56;;;;;;;4.13;2.70;;;;;;;;;;5037227;28;20080;-74
2023/01/18 04:05:23;;;;;;;5.18;2.88;;;;;;;;;;5030452;28;20053;-74
2023/01/18 04:07:49;;;;;;;4.97;2.67;;;;;;;;;;5033517;28;20050;-74
2023/01/18 04:10:16;;;;;;;6.13;3.00;;;;;;;;;;5027368;28;20033;-74
2023/01/18 04:12:42;;;;;;;4.30;2.90;;;;;;;;;;5035765;28;20088;-74
2023/01/18 04:15:08;;;;;;;7.47;3.35;;;;;;;;;;5036879;28;20041;-74
2023/01/18 04:17:34;;;;;;;6.18;2.90;;;;;;;;;;5034203;28;20053;-74
2023/01/18 04:20:01;;;;;;;4.95;3.30;;;;;;;;;;5022767;28;20058;-74
2023/01/18 04:22:27;;;;;;;6.22;3.20;;;;;;;;;;5016345;28;20046;-74
2023/01/18 04:24:53;;;;;;;7.00;3.60;;;;;;;;;;5015741;28;20053;-74
2023/01/18 04:27:19;;;;;;;4.75;3.63;;;;;;;;;;5030342;28;20107;-75
2023/01/18 04:29:45;;;;;;;3.63;3.00;;;;;;;;;;5016627;28;20101;-74
2023/01/18 04:32:11;;;;;;;6.50;3.47;;;;;;;;;;5018853;28;20388;-75
2023/01/18 04:34:37;;;;;;;6.03;3.40;;;;;;;;;;5016748;28;20388;-74
2023/01/18 04:37:03;;;;;;;6.90;3.63;;;;;;;;;;5016294;28;20053;-75
2023/01/18 04:39:29;;;;;;;4.88;3.38;;;;;;;;;;5015928;28;20132;-75
2023/01/18 04:41:55;;;;;;;5.28;3.45;;;;;;;;;;5015648;28;20078;-74
2023/01/18 04:44:21;;;;;;;6.47;3.50;;;;;;;;;;5023204;28;20411;-75
2023/01/18 04:46:48;;;;;;;7.28;3.92;;;;;;;;;;5029880;28;20100;-74
2023/01/18 04:49:16;;;;;;;6.10;4.00;;;;;;;;;;5019550;28;20107;-75
2023/01/18 04:51:43;;;;;;;6.40;3.92;;;;;;;;;;5034589;28;20091;-75
2023/01/18 04:54:09;;;;;;;6.57;3.95;;;;;;;;;;5028918;28;20042;-75
2023/01/18 04:56:35;;;;;;;6.25;4.15;;;;;;;;;;5035276;28;20055;-75
2023/01/18 04:59:01;;;;;;;9.55;4.15;;;;;;;;;;5025336;28;20116;-75
2023/01/18 05:01:28;;;;;;;8.35;4.00;;;;;;;;;;5016941;28;20073;-75
2023/01/18 05:03:54;;;;;;;8.50;4.40;;;;;;;;;;5023271;28;20057;-75
2023/01/18 05:06:20;;;;;;;8.18;4.85;;;;;;;;;;5036445;28;20088;-75
2023/01/18 05:08:47;;;;;;;7.07;4.25;;;;;;;;;;5036505;28;20096;-75
2023/01/18 05:11:14;;;;;;;13.40;4.97;;;;;;;;;;5036169;28;20077;-75
2023/01/18 05:13:40;;;;;;;6.25;4.35;;;;;;;;;;5015655;28;20468;-75
2023/01/18 05:16:08;;;;;;;8.43;4.55;;;;;;;;;;5037456;28;20085;-75
2023/01/18 05:18:34;;;;;;;7.60;4.60;;;;;;;;;;5017174;28;20058;-75
2023/01/18 05:21:00;;;;;;;6.82;4.60;;;;;;;;;;5016144;28;20473;-75
2023/01/18 05:23:26;;;;;;;8.40;4.63;;;;;;;;;;5015359;28;20061;-75
2023/01/18 05:25:53;;;;;;;12.60;5.05;;;;;;;;;;5015881;28;20108;-75
2023/01/18 05:28:19;;;;;;;9.60;5.15;;;;;;;;;;5016942;28;20042;-75
2023/01/18 05:30:48;;;;;;;8.90;4.40;;;;;;;;;;5015921;28;20044;-75
2023/01/18 05:33:14;;;;;;;7.88;4.90;;;;;;;;;;5015805;28;20481;-75
2023/01/18 05:35:40;;;;;;;9.10;5.22;;;;;;;;;;5015627;28;20121;-75
2023/01/18 05:38:06;;;;;;;8.80;5.85;;;;;;;;;;5015998;28;20042;-75
2023/01/18 05:40:32;;;;;;;9.18;5.80;;;;;;;;;;5027399;28;20545;-75
2023/01/18 05:42:58;;;;;;;12.68;5.80;;;;;;;;;;5034563;28;20499;-75
2023/01/18 05:45:24;;;;;;;10.18;5.25;;;;;;;;;;5019722;28;20077;-75
2023/01/18 05:47:51;;;;;;;8.77;5.38;;;;;;;;;;5031087;28;20172;-75
2023/01/18 05:50:17;;;;;;;12.73;5.82;;;;;;;;;;5035033;28;20057;-75
2023/01/18 05:52:43;;;;;;;10.98;5.70;;;;;;;;;;5034705;28;20049;-74
2023/01/18 05:55:09;;;;;;;12.00;5.70;;;;;;;;;;5034327;28;20388;-74
2023/01/18 05:57:35;;;;;;;8.63;5.20;;;;;;;;;;5019707;28;20404;-74
2023/01/18 06:00:02;;;;;;;10.18;5.28;;;;;;;;;;5014756;28;20631;-74
2023/01/18 06:02:28;;;;;;;11.35;6.13;;;;;;;;;;5015782;28;20049;-74
2023/01/18 06:04:54;;;;;;;7.75;5.40;;;;;;;;;;5014597;28;20049;-74
2023/01/18 06:07:20;;;;;;;8.13;5.47;;;;;;;;;;5015278;28;20048;-74
2023/01/18 06:09:46;;;;;;;8.30;5.70;;;;;;;;;;5014086;28;20134;-75
2023/01/18 06:12:12;;;;;;;9.57;5.55;;;;;;;;;;5015136;28;20480;-75
2023/01/18 06:14:38;;;;;;;8.77;5.43;;;;;;;;;;5027324;28;20133;-75
2023/01/18 06:17:05;;;;;;;8.77;5.25;;;;;;;;;;5021388;28;20435;-76
2023/01/18 06:19:31;;;;;;;10.30;5.60;;;;;;;;;;5033336;28;20056;-75
2023/01/18 06:21:57;;;;;;;12.93;6.47;;;;;;;;;;5033242;28;20051;-75
2023/01/18 06:24:23;;;;;;;9.32;5.30;;;;;;;;;;5016051;28;20041;-75
2023/01/18 06:26:49;;;;;;;11.63;5.57;;;;;;;;;;5035099;28;20052;-74
2023/01/18 06:29:15;;;;;;;10.43;6.05;;;;;;;;;;5026427;28;20038;-74
2023/01/18 06:31:41;;;;;;;10.30;5.43;;;;;;;;;;5013987;28;20038;-74
2023/01/18 06:34:08;;;;;;;8.23;5.70;;;;;;;;;;5021511;28;20046;-75
2023/01/18 06:36:37;;;;;;;9.18;5.32;;;;;;;;;;5019820;28;20050;-75
2023/01/18 06:39:04;;;;;;;11.65;5.45;;;;;;;;;;5013781;28;20084;-74
2023/01/18 06:41:30;;;;;;;9.00;4.57;;;;;;;;;;5026145;28;20045;-74
2023/01/18 06:43:56;;;;;;;10.77;4.70;;;;;;;;;;5023188;28;20042;-74
2023/01/18 06:46:22;;;;;;;6.35;4.32;;;;;;;;;;5018688;28;20054;-75
2023/01/18 06:48:48;;;;;;;7.53;4.40;;;;;;;;;;5014259;28;20096;-74
2023/01/18 06:51:14;;;;;;;6.72;4.30;;;;;;;;;;5022821;28;20041;-74
2023/01/18 06:53:40;;;;;;;9.18;4.60;;;;;;;;;;5014074;28;20042;-75
2023/01/18 06:56:09;;;;;;;9.18;5.13;;;;;;;;;;5013706;28;20129;-74
2023/01/18 06:58:35;;;;;;;7.28;4.28;;;;;;;;;;5031435;28;20080;-75
2023/01/18 07:01:02;;;;;;;6.68;4.45;;;;;;;;;;5014960;28;20071;-74
2023/01/18 07:03:31;;;;;;;12.98;5.40;;;;;;;;;;5015110;28;20042;-75
2023/01/18 07:05:58;;;;;;;7.35;4.32;;;;;;;;;;5015154;28;20045;-75
2023/01/18 07:08:25;;;;;;;8.93;4.32;;;;;;;;;;5013067;28;20045;-75
2023/01/18 07:10:52;;;;;;;8.25;4.03;;;;;;;;;;5015662;28;20050;-75
2023/01/18 07:13:18;;;;;;;10.32;4.15;;;;;;;;;;5028623;28;20396;-75
2023/01/18 07:15:44;;;;;;;7.63;4.20;;;;;;;;;;5014307;28;20057;-75
2023/01/18 07:18:11;;;;;;;6.70;4.68;;;;;;;;;;5019953;28;20768;-75
2023/01/18 07:20:37;;;;;;;7.97;4.20;;;;;;;;;;5032218;28;20047;-78
2023/01/18 07:23:03;;;;;;;8.50;4.63;;;;;;;;;;5033542;28;20503;-75
2023/01/18 07:25:30;;;;;;;7.75;4.43;;;;;;;;;;5032456;28;20099;-75
2023/01/18 07:27:56;;;;;;;6.95;3.78;;;;;;;;;;5026527;28;20074;-75
2023/01/18 07:30:22;;;;;;;6.38;4.20;;;;;;;;;;5016329;28;20042;-75
2023/01/18 07:32:50;;;;;;;9.25;4.30;;;;;;;;;;5019403;28;20392;-75
2023/01/18 07:35:20;;;;;;;8.13;4.72;;;;;;;;;;5015853;28;20503;-75
2023/01/18 07:37:51;;;;;;;7.38;4.15;;;;;;;;;;5020704;28;20045;-75
2023/01/18 07:40:19;;;;;;;6.95;3.97;;;;;;;;;;5034144;28;20483;-75
2023/01/18 07:42:45;;;;;;;6.82;4.25;;;;;;;;;;5033693;28;20492;-75
2023/01/18 07:45:12;;;;;;;8.27;4.07;;;;;;;;;;5021428;28;20040;-75
2023/01/18 07:47:39;;;;;;;8.35;3.88;;;;;;;;;;4999176;28;20046;-75
2023/01/18 07:50:05;;;;;;;6.10;4.10;;;;;;;;;;5012353;28;20064;-75
2023/01/18 07:52:31;;;;;;;8.05;3.78;;;;;;;;;;5013857;28;20052;-75
2023/01/18 07:54:57;;;;;;;7.50;4.10;;;;;;;;;;5032262;28;20057;-75
2023/01/18 07:57:24;;;;;;;8.60;3.70;;;;;;;;;;5032737;28;20046;-75
2023/01/18 07:59:50;;;;;;;8.45;4.20;;;;;;;;;;5024403;28;20121;-75
2023/01/18 08:02:16;;;;;;;8.23;4.15;;;;;;;;;;5021818;28;20557;-75
2023/01/18 08:04:44;;;;;;;10.32;4.72;;;;;;;;;;5033368;28;20050;-75
2023/01/18 08:07:10;;;;;;;7.25;3.90;;;;;;;;;;5029424;28;20080;-75
2023/01/18 08:09:39;;;;;;;6.03;3.78;;;;;;;;;;5019901;28;20069;-75
2023/01/18 08:12:06;;;;;;;7.68;4.10;;;;;;;;;;5033062;28;20041;-75
2023/01/18 08:14:33;;;;;;;8.40;4.90;;;;;;;;;;5031703;28;20135;-75
2023/01/18 08:16:59;;;;;;;7.82;4.70;;;;;;;;;;5027201;28;20405;-75
2023/01/18 08:19:25;;;;;;;10.35;5.18;;;;;;;;;;5014040;28;20507;-75
2023/01/18 08:21:51;;;;;;;10.43;5.90;;;;;;;;;;5013192;28;20551;-75
2023/01/18 08:24:17;;;;;;;8.00;4.95;;;;;;;;;;5013428;28;20121;-75
2023/01/18 08:26:43;;;;;;;12.80;6.60;;;;;;;;;;5013476;28;20046;-75
2023/01/18 08:29:09;;;;;;;12.43;6.88;;;;;;;;;;5028295;28;20049;-76
2023/01/18 08:31:35;;;;;;;13.30;7.43;;;;;;;;;;5049849;28;20108;-76
2023/01/18 08:34:01;;;;;;;11.30;7.30;;;;;;;;;;5051947;28;20361;-76
2023/01/18 08:36:27;;;;;;;11.00;7.70;;;;;;;;;;5049493;28;20053;-76
2023/01/18 08:38:55;;;;;;;11.80;7.75;;;;;;;;;;5015506;28;20484;-75
2023/01/18 08:41:26;;;;;;;11.68;7.60;;;;;;;;;;5016652;28;20057;-77
2023/01/18 08:43:53;;;;;;;10.95;6.65;;;;;;;;;;5028034;28;20507;-78
2023/01/18 08:46:19;;;;;;;13.30;7.30;;;;;;;;;;5034047;28;20516;-74
2023/01/18 08:48:48;;;;;;;12.82;6.72;;;;;;;;;;5035668;28;20164;-74
2023/01/18 08:51:16;;;;;;;10.43;7.28;;;;;;;;;;5036436;28;20042;-75
2023/01/18 08:53:43;;;;;;;11.68;7.75;;;;;;;;;;5029322;28;20085;-77
2023/01/18 08:56:09;;;;;;;11.88;7.30;;;;;;;;;;5036721;28;20107;-73
2023/01/18 08:58:35;;;;;;;10.32;6.70;;;;;;;;;;5025337;28;20404;-75
2023/01/18 09:01:04;;;;;;;10.85;6.80;;;;;;;;;;5017580;28;20085;-75
2023/01/18 09:03:30;;;;;;;8.95;6.50;;;;;;;;;;5028155;28;20120;-75
2023/01/18 09:05:59;;;;;;;10.98;6.97;;;;;;;;;;5024144;28;20116;-75
2023/01/18 09:08:25;;;;;;;10.88;6.45;;;;;;;;;;5023268;28;20049;-75
2023/01/18 09:10:51;;;;;;;9.95;6.35;;;;;;;;;;5031636;28;20103;-75
2023/01/18 09:13:17;;;;;;;12.73;6.50;;;;;;;;;;5035130;28;20052;-75
2023/01/18 09:15:47;;;;;;;10.85;6.47;;;;;;;;;;5035974;28;20053;-75
2023/01/18 09:18:13;;;;;;;10.25;6.20;;;;;;;;;;5030748;28;20054;-75
2023/01/18 09:20:39;;;;;;;9.48;6.20;;;;;;;;;;5022322;28;20053;-75
2023/01/18 09:23:09;;;;;;;12.43;6.97;;;;;;;;;;5027616;28;20069;-75
2023/01/18 09:25:36;;;;;;;10.73;6.32;;;;;;;;;;5026031;28;20519;-75
2023/01/18 09:28:03;;;;;;;11.80;6.30;;;;;;;;;;5029600;28;20055;-75
2023/01/18 09:30:29;;;;;;;8.45;5.82;;;;;;;;;;5033965;28;20116;-75
2023/01/18 09:32:56;;;;;;;10.27;6.20;;;;;;;;;;5029239;28;20042;-75
2023/01/18 09:35:22;;;;;;;11.55;6.38;;;;;;;;;;5034936;28;20099;-75
2023/01/18 09:37:48;;;;;;;11.98;6.50;;;;;;;;;;5025332;28;20048;-75
2023/01/18 09:40:16;;;;;;;11.52;6.30;;;;;;;;;;5021540;28;20037;-75
2023/01/18 09:42:43;;;;;;;8.73;5.95;;;;;;;;;;5037927;28;20400;-75
2023/01/18 09:45:17;;;;;;;8.60;5.43;;;;;;;;;;5041068;28;20107;-75
2023/01/18 09:47:45;;;;;;;10.55;5.75;;;;;;;;;;5034371;28;20049;-76
2023/01/18 09:50:12;;;;;;;11.05;6.03;;;;;;;;;;5035335;28;20052;-75
2023/01/18 09:52:49;;;;;;;8.18;5.32;;;;;;;;;;5032973;28;20136;-76
2023/01/18 09:55:22;;;;;;;8.65;5.72;;;;;;;;;;5032663;28;20087;-75
2023/01/18 09:57:54;;;;;;;8.93;5.70;;;;;;;;;;5015560;28;20096;-76
2023/01/18 10:00:22;;;;;;;9.70;5.55;;;;;;;;;;5027134;28;20042;-76
2023/01/18 10:02:52;;;;;;;9.52;5.97;;;;;;;;;;5035205;28;20041;-75
2023/01/18 10:05:23;;;;;;;8.55;5.53;;;;;;;;;;5021285;28;20053;-75
2023/01/18 10:08:01;;;;;;;10.18;5.78;;;;;;;;;;5032799;28;20045;-75
2023/01/18 10:10:33;;;;;;;9.55;5.90;;;;;;;;;;5023316;28;20116;-75
2023/01/18 10:13:18;;;;;;;10.45;5.80;;;;;;;;;;5034483;28;20111;-75
2023/01/18 10:15:44;;;;;;;7.10;5.18;;;;;;;;;;5022021;28;20045;-75
2023/01/18 10:18:11;;;;;;;11.75;5.93;;;;;;;;;;5045117;28;20053;-76
2023/01/18 10:20:46;;;;;;;8.52;6.05;;;;;;;;;;5034956;28;20053;-75
2023/01/18 10:23:15;;;;;;;17.73;5.85;;;;;;;;;;5032601;28;20038;-76
2023/01/18 10:25:46;;;;;;;10.70;6.05;;;;;;;;;;5014557;28;20082;-76
2023/01/18 10:28:31;;;;;;;10.20;5.57;;;;;;;;;;5019418;28;20045;-75
2023/01/18 10:31:00;;;;;;;9.25;5.82;;;;;;;;;;5023091;28;20496;-75
2023/01/18 10:33:28;;;;;;;9.23;5.55;;;;;;;;;;5028190;28;20159;-75
2023/01/18 10:35:56;;;;;;;10.48;6.25;;;;;;;;;;5035520;28;20056;-76
2023/01/18 10:38:24;;;;;;;12.02;5.68;;;;;;;;;;5034946;28;20038;-76
2023/01/18 10:40:57;;;;;;;10.88;6.10;;;;;;;;;;5034145;28;20076;-76
2023/01/18 10:43:25;;;;;;;8.80;5.70;;;;;;;;;;5034024;28;20459;-76
2023/01/18 10:45:52;;;;;;;6.43;5.45;;;;;;;;;;5034968;28;20037;-76
2023/01/18 10:48:18;;;;;;;9.77;6.25;;;;;;;;;;5034316;28;20107;-77
2023/01/18 10:50:46;;;;;;;7.47;5.35;;;;;;;;;;5021416;28;20045;-76
2023/01/18 10:53:21;;;;;;;8.82;5.55;;;;;;;;;;5032934;28;20512;-76
2023/01/18 10:56:11;;;;;;;8.15;5.43;;;;;;;;;;5033669;28;20072;-76
2023/01/18 10:58:37;;;;;;;12.85;5.38;;;;;;;;;;5023990;28;20503;-76
2023/01/18 11:01:03;;;;;;;8.77;4.90;;;;;;;;;;5025773;28;20488;-76
2023/01/18 11:03:32;;;;;;;10.32;5.50;;;;;;;;;;5021548;28;20053;-76
2023/01/18 11:06:05;;;;;;;8.65;5.45;;;;;;;;;;5014438;28;20046;-76
2023/01/18 11:08:33;;;;;;;6.88;5.07;;;;;;;;;;5030515;28;20084;-76
2023/01/18 11:11:05;;;;;;;10.10;5.47;;;;;;;;;;5033949;28;20045;-76
2023/01/18 11:13:37;;;;;;;7.95;5.15;;;;;;;;;;5021004;28;20435;-76
2023/01/18 11:16:14;;;;;;;9.48;5.13;;;;;;;;;;5033549;28;20056;-76
2023/01/18 11:19:00;;;;;;;9.15;4.80;;;;;;;;;;5032662;28;20134;-76
2023/01/18 11:21:29;;;;;;;7.18;5.05;;;;;;;;;;5033587;28;20095;-76
2023/01/18 11:23:55;;;;;;;6.97;5.07;;;;;;;;;;5015820;28;20534;-75
2023/01/18 11:26:22;;;;;;;7.90;5.30;;;;;;;;;;5033862;28;20107;-76
2023/01/18 11:29:11;;;;;;;6.78;4.90;;;;;;;;;;5033882;28;20048;-79
2023/01/18 11:31:45;;;;;;;6.70;4.68;;;;;;;;;;5031073;28;20133;-77
2023/01/18 11:34:28;;;;;;;8.20;5.18;;;;;;;;;;5040567;28;20052;-76
2023/01/18 11:36:54;;;;;;;11.80;5.20;;;;;;;;;;5013778;28;20046;-76
2023/01/18 11:39:31;;;;;;;6.20;4.35;;;;;;;;;;5030214;28;20073;-76
2023/01/18 11:42:13;;;;;;;8.45;5.13;;;;;;;;;;5033403;28;20556;-76
2023/01/18 11:44:43;;;;;;;7.70;4.60;;;;;;;;;;5013917;28;20045;-76
2023/01/18 11:47:15;;;;;;;7.97;4.45;;;;;;;;;;5013319;28;20448;-76
2023/01/18 11:49:44;;;;;;;8.68;4.53;;;;;;;;;;5013724;28;20056;-76
2023/01/18 11:52:11;;;;;;;7.43;4.57;;;;;;;;;;5013646;28;20397;-76
2023/01/18 11:54:46;;;;;;;8.48;4.05;;;;;;;;;;5014052;28;20049;-76
2023/01/18 11:57:13;;;;;;;5.85;4.00;;;;;;;;;;5013550;28;20049;-76
2023/01/18 11:59:44;;;;;;;5.80;4.22;;;;;;;;;;5013616;28;20075;-76
2023/01/18 12:02:32;;;;;;;6.25;4.15;;;;;;;;;;5026823;28;20061;-76
2023/01/18 12:05:15;;;;;;;7.90;4.30;;;;;;;;;;5023527;28;20046;-76
2023/01/18 12:07:54;;;;;;;5.93;3.88;;;;;;;;;;5037323;28;20057;-76
2023/01/18 12:10:25;;;;;;;6.70;4.25;;;;;;;;;;5037358;28;20037;-76
2023/01/18 12:13:06;;;;;;;6.60;3.97;;;;;;;;;;5037267;28;20041;-76
2023/01/18 12:15:32;;;;;;;6.70;3.78;;;;;;;;;;5037186;28;20052;-76
2023/01/18 12:18:01;;;;;;;4.72;3.30;;;;;;;;;;5035574;28;20135;-76
2023/01/18 12:20:32;;;;;;;6.63;2.90;;;;;;;;;;5031735;28;20125;-76
2023/01/18 12:23:12;;;;;;;5.28;2.95;;;;;;;;;;5019383;28;20066;-76
2023/01/18 12:25:56;;;;;;;7.25;3.17;;;;;;;;;;5016764;28;20085;-76
2023/01/18 12:28:22;;;;;;;4.55;2.45;;;;;;;;;;5033811;28;20066;-76
2023/01/18 12:30:53;;;;;;;5.55;2.75;;;;;;;;;;5036299;28;20380;-76
2023/01/18 12:33:22;;;;;;;5.47;2.63;;;;;;;;;;5036789;28;20049;-76
2023/01/18 12:35:55;;;;;;;7.05;2.20;;;;;;;;;;5032399;28;20045;-76
2023/01/18 12:38:34;;;;;;;5.75;2.42;;;;;;;;;;5024983;28;20526;-76
2023/01/18 12:41:18;;;;;;;7.78;2.83;;;;;;;;;;5033214;28;20045;-76
2023/01/18 12:44:00;;;;;;;5.22;2.90;;;;;;;;;;5036178;28;20124;-76
2023/01/18 12:46:28;;;;;;;4.30;2.50;;;;;;;;;;5024967;28;20045;-76
2023/01/18 12:49:00;;;;;;;4.38;2.22;;;;;;;;;;5036136;28;20037;-76
2023/01/18 12:51:29;;;;;;;5.05;2.63;;;;;;;;;;5025808;28;20127;-76
2023/01/18 12:53:58;;;;;;;7.35;2.58;;;;;;;;;;5018313;28;20045;-76
2023/01/18 12:56:38;;;;;;;5.45;2.85;;;;;;;;;;5031238;28;20048;-76
2023/01/18 12:59:15;;;;;;;5.20;2.50;;;;;;;;;;5040286;28;20041;-76
2023/01/18 13:01:44;;;;;;;6.65;2.38;;;;;;;;;;5035418;28;20372;-76
2023/01/18 13:04:15;;;;;;;4.60;2.55;;;;;;;;;;5024975;28;20126;-76
2023/01/18 13:06:42;;;;;;;3.75;2.55;;;;;;;;;;5018663;28;20516;-76
2023/01/18 13:09:15;;;;;;;6.22;2.42;;;;;;;;;;5031009;28;20038;-76
2023/01/18 13:11:42;;;;;;;4.95;2.50;;;;;;;;;;5029594;28;20126;-76
2023/01/18 13:14:17;;;;;;;5.53;2.65;;;;;;;;;;5016542;28;20046;-76
2023/01/18 13:16:48;;;;;;;6.38;2.55;;;;;;;;;;5015850;28;20156;-76
2023/01/18 13:19:20;;;;;;;6.00;2.80;;;;;;;;;;5027736;28;20065;-76
2023/01/18 13:21:52;;;;;;;5.47;2.58;;;;;;;;;;5034874;28;20120;-76
2023/01/18 13:24:30;;;;;;;4.75;2.70;;;;;;;;;;5036070;28;20072;-76
2023/01/18 13:27:06;;;;;;;5.50;2.97;;;;;;;;;;5025078;28;20041;-76
2023/01/18 13:29:32;;;;;;;;;;;;;;;;;;5036483;28;20042;-76
2023/01/18 13:31:58;;;;;;;6.70;2.43;;;;;;;;;;5035451;28;19921;-76
2023/01/18 13:34:30;;;;;;;6.68;2.75;;;;;;;;;;5035338;28;20115;-76
2023/01/18 13:36:56;;;;;;;5.93;3.03;;;;;;;;;;5025516;28;20118;-76
2023/01/18 13:39:23;;;;;;;6.40;2.67;;;;;;;;;;5015171;28;20217;-76
2023/01/18 13:41:59;;;;;;;6.50;2.70;;;;;;;;;;5025229;28;20053;-76
2023/01/18 13:44:29;;;;;;;5.80;2.80;;;;;;;;;;5019412;28;20476;-76
2023/01/18 13:46:57;;;;;;;5.68;2.97;;;;;;;;;;5023666;28;20073;-76
2023/01/18 13:49:25;;;;;;;5.72;2.60;;;;;;;;;;5020947;28;20038;-76
2023/01/18 13:51:51;;;;;;;5.55;2.92;;;;;;;;;;5035024;28;20049;-76
2023/01/18 13:54:37;;;;;;;7.75;2.30;;;;;;;;;;5015423;28;20104;-76
2023/01/18 13:57:04;;;;;;;4.22;2.40;;;;;;;;;;5015566;28;20479;-76
2023/01/18 13:59:32;;;;;;;5.68;2.30;;;;;;;;;;5025293;28;20049;-76
2023/01/18 14:02:19;;;;;;;5.35;1.95;;;;;;;;;;5023981;28;20037;-76
2023/01/18 14:04:45;;;;;;;;;;;;;;;;;;5016718;28;20499;-76
2023/01/18 14:07:20;;;;;;;5.25;2.30;;;;;;;;;;5032968;28;20386;-76
2023/01/18 14:09:47;;;;;;;4.50;2.30;;;;;;;;;;5033645;28;20053;-76
2023/01/18 14:12:13;;;;;;;6.30;2.20;;;;;;;;;;5034499;28;20041;-77
2023/01/18 14:15:05;;;;;;;4.43;2.50;;;;;;;;;;5032913;28;20088;-76
2023/01/18 14:17:33;;;;;;;3.65;2.22;;;;;;;;;;5022992;28;20049;-76
2023/01/18 14:20:08;;;;;;;2.42;1.98;;;;;;;;;;5034760;28;20090;-76
2023/01/18 14:22:54;;;;;;;5.43;2.90;;;;;;;;;;5023930;28;20173;-76
2023/01/18 14:25:20;;;;;;;;;;;;;;;;;;5034867;28;20049;-76
2023/01/18 14:28:02;;;;;;;6.63;2.10;;;;;;;;;;5034412;28;20004;-76
2023/01/18 14:30:32;;;;;;;2.20;1.58;;;;;;;;;;5024203;28;20053;-76
2023/01/18 14:33:05;;;;;;;3.97;2.10;;;;;;;;;;5014728;28;20092;-76
2023/01/18 14:35:31;;;;;;;3.83;1.80;;;;;;;;;;5026413;28;20369;-76
2023/01/18 14:38:12;;;;;;;4.28;2.00;;;;;;;;;;5032706;28;20076;-76
2023/01/18 14:40:42;;;;;;;7.65;2.17;;;;;;;;;;5034445;28;20041;-76
2023/01/18 14:43:37;;;;;;;6.80;2.30;;;;;;;;;;5031004;28;20045;-76
2023/01/18 14:46:06;;;;;;;6.57;2.30;;;;;;;;;;5011906;28;20068;-77
2023/01/18 14:48:34;;;;;;;5.85;2.65;;;;;;;;;;5034377;28;20507;-76
2023/01/18 14:51:00;;;;;;;5.75;2.15;;;;;;;;;;5016820;28;20045;-81
2023/01/18 14:53:32;;;;;;;6.25;2.83;;;;;;;;;;5033433;28;20372;-77
2023/01/18 14:56:01;;;;;;;6.97;2.45;;;;;;;;;;5030168;28;20041;-77
2023/01/18 14:58:28;;;;;;;6.28;2.20;;;;;;;;;;5013097;28;20128;-77
2023/01/18 15:00:54;;;;;;;3.95;2.30;;;;;;;;;;5013243;28;20050;-77
2023/01/18 15:03:31;;;;;;;6.22;2.40;;;;;;;;;;5061017;28;20041;-76
2023/01/18 15:06:17;;;;;;;5.20;2.40;;;;;;;;;;5033499;28;20049;-76
2023/01/18 15:08:43;;;;;;;7.25;2.75;;;;;;;;;;5022124;28;20045;-76
2023/01/18 15:11:10;;;;;;;5.95;2.60;;;;;;;;;;5022680;28;20041;-75
2023/01/18 15:13:48;;;;;;;5.35;2.45;;;;;;;;;;5027948;28;20372;-75
2023/01/18 15:16:21;;;;;;;6.15;2.20;;;;;;;;;;5032875;28;20099;-75
2023/01/18 15:18:49;;;;;;;3.58;1.90;;;;;;;;;;5026238;28;20077;-75
2023/01/18 15:21:17;;;;;;;6.25;2.33;;;;;;;;;;5015874;28;20085;-75
2023/01/18 15:23:44;;;;;;;4.35;2.05;;;;;;;;;;5053990;28;20045;-78
2023/01/18 15:26:10;;;;;;;3.42;2.00;;;;;;;;;;5039051;28;20443;-75